Time;durP1;ratioP1;P1;durP2;ratioP2;P2;SDS_P1;SDS_P2;PMS_P1;PMS_P2;Temp;Humidity;BMP_temperature;BMP_pressure;BME280_temperature;BME280_humidity;BME280_pressure;Samples;Min_cycle;Max_cycle;Signal;HPM_P1;HPM_P2
2021/06/26 00:00:25;;;;;;;8.55;7.53;;;;;;;18.14;83.36;101264.34;4925408;29;20396;-73
2021/06/26 00:02:51;;;;;;;10.63;7.60;;;;;;;18.13;82.99;101257.34;4916007;29;20046;-74
2021/06/26 00:05:16;;;;;;;10.32;7.15;;;;;;;18.13;82.80;101254.59;4914946;29;20773;-73
2021/06/26 00:07:41;;;;;;;9.38;7.60;;;;;;;18.10;82.79;101256.16;4906292;29;20042;-74
2021/06/26 00:10:08;;;;;;;8.32;7.32;;;;;;;18.06;83.31;101260.06;4910746;29;20107;-73
2021/06/26 00:12:34;;;;;;;8.48;7.32;;;;;;;17.94;83.73;101262.00;4920248;29;20032;-73
2021/06/26 00:15:00;;;;;;;8.10;7.10;;;;;;;17.98;83.49;101262.78;4908163;29;20028;-73
2021/06/26 00:17:25;;;;;;;8.70;7.38;;;;;;;17.90;83.24;101263.94;4913878;29;20131;-74
2021/06/26 00:19:51;;;;;;;8.73;7.28;;;;;;;17.85;83.29;101258.91;4912675;29;20111;-73
2021/06/26 00:22:17;;;;;;;9.52;7.50;;;;;;;17.79;83.68;101256.94;4901122;29;20079;-73
2021/06/26 00:24:42;;;;;;;9.52;7.80;;;;;;;17.76;83.93;101255.78;4908304;29;20602;-73
2021/06/26 00:27:08;;;;;;;8.98;7.40;;;;;;;17.77;83.86;101257.31;4922341;29;20028;-73
2021/06/26 00:29:34;;;;;;;9.27;7.63;;;;;;;17.81;83.07;101270.94;4907660;29;20614;-73
2021/06/26 00:31:59;;;;;;;8.43;7.50;;;;;;;17.75;82.72;101259.66;4926735;29;20028;-73
2021/06/26 00:34:25;;;;;;;7.88;6.80;;;;;;;17.66;83.43;101264.72;4907341;29;20044;-73
2021/06/26 00:36:50;;;;;;;9.07;6.93;;;;;;;17.65;83.59;101256.94;4910791;29;20036;-74
2021/06/26 00:39:16;;;;;;;8.95;7.63;;;;;;;17.40;84.49;101262.28;4909884;29;20046;-73
2021/06/26 00:41:41;;;;;;;11.20;7.40;;;;;;;17.31;84.90;101267.34;4908273;29;20114;-73
2021/06/26 00:44:08;;;;;;;10.77;7.90;;;;;;;17.34;84.50;101261.13;4906015;29;20550;-73
2021/06/26 00:46:35;;;;;;;8.43;7.47;;;;;;;17.34;85.17;101261.13;4906591;29;20035;-73
2021/06/26 00:49:02;;;;;;;9.02;7.57;;;;;;;17.20;85.44;101263.81;4922922;29;20147;-73
2021/06/26 00:51:27;;;;;;;9.77;7.95;;;;;;;17.31;85.50;101267.34;4904890;29;20040;-73
2021/06/26 00:53:53;;;;;;;9.27;7.07;;;;;;;17.37;85.17;101259.56;4907988;29;20084;-73
2021/06/26 00:56:19;;;;;;;8.20;7.40;;;;;;;17.39;85.14;101259.97;4906583;29;20487;-73
2021/06/26 00:58:46;;;;;;;9.13;8.15;;;;;;;17.40;85.09;101267.75;4907929;29;20136;-73
2021/06/26 01:01:12;;;;;;;8.93;7.45;;;;;;;17.28;85.37;101261.88;4890857;29;20063;-73
2021/06/26 01:03:37;;;;;;;9.55;7.38;;;;;;;17.23;85.75;101262.28;4891234;29;20024;-73
2021/06/26 01:06:03;;;;;;;9.18;7.60;;;;;;;17.29;85.48;101256.06;4908117;29;20029;-73
2021/06/26 01:08:29;;;;;;;9.43;8.00;;;;;;;17.20;85.44;101249.41;4905168;29;20035;-73
2021/06/26 01:10:54;;;;;;;8.10;7.20;;;;;;;17.03;86.18;101257.13;4912513;29;20042;-73
2021/06/26 01:13:20;;;;;;;11.43;7.57;;;;;;;17.06;86.81;101252.88;4903263;29;20032;-73
2021/06/26 01:15:46;;;;;;;8.85;7.22;;;;;;;17.09;86.61;101257.56;4906976;29;20048;-73
2021/06/26 01:18:11;;;;;;;10.10;7.65;;;;;;;17.05;86.59;101264.94;4911853;29;20111;-73
2021/06/26 01:20:36;;;;;;;10.70;7.82;;;;;;;16.97;87.07;101271.50;4922134;29;20043;-73
2021/06/26 01:23:03;;;;;;;9.35;7.43;;;;;;;16.87;87.01;101264.84;4915660;29;20036;-73
2021/06/26 01:25:30;;;;;;;9.88;7.68;;;;;;;16.84;87.14;101264.84;4910417;29;20073;-73
2021/06/26 01:27:58;;;;;;;10.85;7.32;;;;;;;16.82;87.09;101265.19;4913315;29;20028;-74
2021/06/26 01:30:30;;;;;;;10.68;7.88;;;;;;;16.84;87.21;101270.28;4911602;29;20032;-74
2021/06/26 01:32:56;;;;;;;10.30;7.22;;;;;;;16.84;87.28;101251.25;4921780;29;20039;-73
2021/06/26 01:35:22;;;;;;;11.93;7.55;;;;;;;16.89;86.91;101256.31;4909004;29;20056;-74
2021/06/26 01:37:48;;;;;;;12.38;7.82;;;;;;;16.83;87.23;101258.63;4913131;29;20566;-73
2021/06/26 01:40:16;;;;;;;9.93;7.43;;;;;;;16.82;87.21;101256.28;4913704;29;20042;-74
2021/06/26 01:42:42;;;;;;;10.23;7.65;;;;;;;16.65;87.61;101265.09;4913323;29;20043;-73
2021/06/26 01:45:08;;;;;;;9.43;7.30;;;;;;;16.63;88.13;101265.50;4911993;29;20709;-73
2021/06/26 01:47:34;;;;;;;9.48;7.32;;;;;;;16.54;87.73;101262.34;4926649;29;20036;-73
2021/06/26 01:50:00;;;;;;;7.95;7.10;;;;;;;16.46;88.46;101255.28;4910534;29;20044;-74
2021/06/26 01:52:26;;;;;;;10.93;7.57;;;;;;;16.47;88.60;101253.34;4913567;29;20028;-73
2021/06/26 01:54:51;;;;;;;9.30;7.57;;;;;;;16.41;88.63;101252.13;4921445;29;20032;-73
2021/06/26 01:57:17;;;;;;;8.20;7.20;;;;;;;16.38;89.27;101253.66;4929004;29;20040;-72
2021/06/26 01:59:42;;;;;;;8.30;6.70;;;;;;;16.36;88.86;101244.31;4932794;29;20098;-72
2021/06/26 02:02:08;;;;;;;8.07;6.80;;;;;;;16.44;88.61;101244.00;4920029;29;20499;-73
2021/06/26 02:04:34;;;;;;;8.38;7.13;;;;;;;16.50;88.70;101245.22;4906477;29;20034;-73
2021/06/26 02:07:00;;;;;;;11.52;7.07;;;;;;;16.39;88.90;101243.56;4913466;29;20534;-73
2021/06/26 02:09:25;;;;;;;9.23;7.57;;;;;;;16.42;88.71;101245.53;4916856;29;20043;-73
2021/06/26 02:11:51;;;;;;;8.25;7.20;;;;;;;16.39;88.72;101249.00;4912302;29;20051;-73
2021/06/26 02:14:17;;;;;;;8.20;7.10;;;;;;;16.38;89.31;101250.16;4914761;29;20106;-73
2021/06/26 02:16:42;;;;;;;7.90;7.10;;;;;;;16.44;88.85;101249.44;4921045;29;20047;-73
2021/06/26 02:19:08;;;;;;;9.48;7.45;;;;;;;16.53;89.08;101262.72;4927317;29;20103;-72
2021/06/26 02:21:34;;;;;;;7.68;6.88;;;;;;;16.53;88.91;101249.88;4910414;29;20182;-73
2021/06/26 02:23:59;;;;;;;8.45;7.55;;;;;;;16.51;89.08;101256.88;4915315;29;20040;-73
2021/06/26 02:26:25;;;;;;;8.93;7.25;;;;;;;16.51;89.13;101259.63;4913202;29;20450;-74
2021/06/26 02:28:51;;;;;;;7.90;6.90;;;;;;;16.49;89.50;101253.78;4910299;29;20036;-74
2021/06/26 02:31:16;;;;;;;9.77;6.80;;;;;;;16.57;89.24;101255.38;4909525;29;20095;-73
2021/06/26 02:33:42;;;;;;;7.57;6.85;;;;;;;16.54;88.83;101246.03;4925636;29;20040;-73
2021/06/26 02:36:08;;;;;;;9.25;6.53;;;;;;;16.49;89.19;101256.50;4908754;29;20035;-73
2021/06/26 02:38:33;;;;;;;8.52;7.32;;;;;;;16.47;89.18;101247.91;4923026;29;20972;-73
2021/06/26 02:40:59;;;;;;;7.70;6.95;;;;;;;16.38;90.06;101253.66;4914404;29;20667;-73
2021/06/26 02:43:24;;;;;;;9.20;7.38;;;;;;;16.36;90.28;101255.97;4924368;29;20047;-72
2021/06/26 02:45:50;;;;;;;9.07;7.22;;;;;;;16.45;90.34;101258.38;4910151;29;20067;-72
2021/06/26 02:48:15;;;;;;;7.80;7.00;;;;;;;16.49;90.84;101259.97;4908347;29;20035;-72
2021/06/26 02:50:41;;;;;;;8.93;7.10;;;;;;;16.56;91.04;101265.47;4918961;29;20438;-72
2021/06/26 02:53:07;;;;;;;9.73;7.78;;;;;;;16.53;91.09;101260.78;4895315;29;20134;-72
2021/06/26 02:55:33;;;;;;;8.45;7.05;;;;;;;16.65;91.54;101263.19;4907430;29;20172;-72
2021/06/26 02:57:58;;;;;;;7.85;6.97;;;;;;;16.65;91.39;101265.09;4919513;29;20051;-72
2021/06/26 03:00:25;;;;;;;7.40;6.55;;;;;;;16.72;91.33;101265.94;4910197;29;20111;-72
2021/06/26 03:02:51;;;;;;;8.02;6.93;;;;;;;16.75;91.43;101265.19;4907621;29;20036;-72
2021/06/26 03:05:16;;;;;;;8.00;6.88;;;;;;;16.73;90.95;101264.00;4912648;29;20043;-72
2021/06/26 03:07:50;;;;;;;8.25;7.00;;;;;;;16.78;90.19;101266.38;4929165;29;20438;-73
2021/06/26 03:10:16;;;;;;;9.18;6.90;;;;;;;16.81;90.71;101263.66;4909322;29;20099;-73
2021/06/26 03:12:41;;;;;;;8.00;6.97;;;;;;;16.76;91.44;101266.72;4910630;29;20055;-73
2021/06/26 03:15:07;;;;;;;7.82;6.70;;;;;;;16.78;91.24;101272.56;4908513;29;20044;-73
2021/06/26 03:17:32;;;;;;;9.02;7.35;;;;;;;16.72;90.93;101270.59;4908503;29;20072;-72
2021/06/26 03:19:58;;;;;;;9.85;7.25;;;;;;;16.69;91.28;101272.13;4926796;29;20035;-73
2021/06/26 03:22:24;;;;;;;7.47;6.78;;;;;;;16.71;91.23;101272.53;4908174;29;20131;-73
2021/06/26 03:24:50;;;;;;;7.47;6.70;;;;;;;16.70;90.58;101279.16;4909672;29;20034;-73
2021/06/26 03:27:16;;;;;;;8.82;7.10;;;;;;;16.63;90.51;101281.03;4916689;29;20632;-73
2021/06/26 03:29:42;;;;;;;8.13;6.95;;;;;;;16.62;90.51;101276.75;4924701;29;20032;-73
2021/06/26 03:32:08;;;;;;;7.70;6.65;;;;;;;16.61;90.42;101275.97;4915890;29;20680;-73
2021/06/26 03:34:33;;;;;;;9.57;6.85;;;;;;;16.58;90.10;101274.03;4926064;28;20491;-73
2021/06/26 03:36:59;;;;;;;10.77;7.95;;;;;;;16.57;90.61;101282.56;4908818;29;20031;-73
2021/06/26 03:39:24;;;;;;;7.72;6.93;;;;;;;16.52;91.19;101291.06;4903078;29;20119;-73
2021/06/26 03:41:50;;;;;;;8.82;7.20;;;;;;;16.59;90.78;101302.00;4909525;29;20082;-73
2021/06/26 03:44:15;;;;;;;12.05;7.28;;;;;;;16.49;90.79;101295.31;4908302;29;20032;-73
2021/06/26 03:46:41;;;;;;;10.85;7.47;;;;;;;16.52;91.23;101301.94;4908686;29;20427;-73
2021/06/26 03:49:07;;;;;;;9.68;6.78;;;;;;;16.55;91.26;101298.50;4924095;29;20072;-73
2021/06/26 03:51:33;;;;;;;9.57;7.03;;;;;;;16.61;91.02;101291.50;4907709;29;20035;-73
2021/06/26 03:53:58;;;;;;;8.48;7.05;;;;;;;16.57;90.93;101298.88;4906476;29;20040;-72
2021/06/26 03:56:24;;;;;;;9.50;7.78;;;;;;;16.61;91.24;101296.94;4923325;29;20036;-73
2021/06/26 03:58:49;;;;;;;7.88;6.93;;;;;;;16.67;91.43;101307.09;4908964;29;20598;-72
2021/06/26 04:01:15;;;;;;;11.38;7.10;;;;;;;16.81;91.15;101300.97;4921601;29;20040;-73
2021/06/26 04:03:40;;;;;;;8.40;7.47;;;;;;;16.83;90.58;101298.63;4910517;29;20040;-73
2021/06/26 04:06:06;;;;;;;8.27;7.47;;;;;;;16.86;90.64;101295.16;4913671;29;20044;-72
2021/06/26 04:08:31;;;;;;;8.88;7.43;;;;;;;16.88;90.79;101303.72;4908201;29;20040;-73
2021/06/26 04:10:57;;;;;;;8.38;7.47;;;;;;;16.86;90.94;101306.06;4905145;29;20039;-72
2021/06/26 04:13:22;;;;;;;8.88;7.60;;;;;;;16.84;90.67;101311.09;4910884;29;20135;-74
2021/06/26 04:15:47;;;;;;;10.13;7.18;;;;;;;16.89;90.15;101305.28;4908914;29;20078;-73
2021/06/26 04:18:13;;;;;;;8.80;7.82;;;;;;;16.84;90.57;101305.66;4908956;29;20044;-73
2021/06/26 04:20:38;;;;;;;9.30;7.95;;;;;;;16.80;90.70;101307.56;4920899;29;20028;-72
2021/06/26 04:23:04;;;;;;;10.90;8.30;;;;;;;16.82;90.77;101310.69;4918754;29;20071;-73
2021/06/26 04:25:29;;;;;;;10.85;7.60;;;;;;;16.90;91.17;101317.72;4923099;29;20724;-73
2021/06/26 04:27:55;;;;;;;14.50;8.07;;;;;;;16.93;91.06;101308.81;4891709;29;20044;-72
2021/06/26 04:30:22;;;;;;;12.95;8.60;;;;;;;17.11;90.73;101315.13;4908709;29;20079;-73
2021/06/26 04:32:47;;;;;;;10.82;8.23;;;;;;;17.18;90.65;101320.59;4906541;29;20036;-72
2021/06/26 04:35:15;;;;;;;10.88;7.72;;;;;;;17.30;90.97;101312.09;4919268;29;20046;-72
2021/06/26 04:37:41;;;;;;;11.30;7.78;;;;;;;17.29;90.94;101313.22;4907319;29;20050;-73
2021/06/26 04:40:07;;;;;;;13.18;8.40;;;;;;;17.34;90.74;101312.88;4904475;29;20657;-72
2021/06/26 04:42:33;;;;;;;9.23;7.88;;;;;;;17.44;90.71;101317.56;4907212;29;20562;-73
2021/06/26 04:44:58;;;;;;;12.30;7.95;;;;;;;17.58;89.45;101314.91;4901475;29;20075;-72
2021/06/26 04:47:25;;;;;;;10.13;7.68;;;;;;;17.60;89.97;101328.94;4906665;29;20134;-73
2021/06/26 04:49:50;;;;;;;11.90;8.23;;;;;;;17.58;91.03;101325.00;4905648;29;20512;-72
2021/06/26 04:52:16;;;;;;;9.10;7.70;;;;;;;17.63;90.97;101330.09;4905850;29;20107;-74
2021/06/26 04:54:41;;;;;;;9.23;7.70;;;;;;;17.64;91.31;101329.72;4906427;29;20976;-73
2021/06/26 04:57:08;;;;;;;11.40;8.00;;;;;;;17.71;91.49;101327.00;4912152;29;20028;-73
2021/06/26 04:59:34;;;;;;;11.43;7.75;;;;;;;17.73;91.41;101321.94;4911704;29;20040;-73
2021/06/26 05:02:00;;;;;;;10.95;8.07;;;;;;;17.72;90.53;101322.34;4905828;29;20036;-72
2021/06/26 05:04:25;;;;;;;12.70;7.43;;;;;;;17.73;91.02;101319.22;4922024;29;20507;-73
2021/06/26 05:06:51;;;;;;;8.52;6.85;;;;;;;17.72;90.98;101328.56;4908009;29;20491;-73
2021/06/26 05:09:16;;;;;;;11.02;7.68;;;;;;;17.88;90.51;101317.31;4908940;29;20470;-73
2021/06/26 05:11:42;;;;;;;9.07;7.10;;;;;;;18.07;89.55;101321.59;4906531;29;20114;-73
2021/06/26 05:14:09;;;;;;;10.05;7.10;;;;;;;18.21;89.66;101314.22;4906786;29;20043;-72
2021/06/26 05:16:34;;;;;;;8.20;7.18;;;;;;;18.58;88.29;101325.50;4920955;29;20067;-72
2021/06/26 05:19:00;;;;;;;9.27;6.50;;;;;;;18.84;87.37;101319.59;4908884;29;20074;-73
2021/06/26 05:21:26;;;;;;;8.80;6.88;;;;;;;19.08;84.23;101328.91;4923233;29;20040;-72
2021/06/26 05:23:52;;;;;;;13.48;7.40;;;;;;;19.12;82.65;101328.88;4922651;29;20036;-72
2021/06/26 05:26:17;;;;;;;10.02;7.20;;;;;;;19.19;83.21;101328.84;4904775;29;20043;-72
2021/06/26 05:28:43;;;;;;;8.95;7.07;;;;;;;19.28;85.48;101338.16;4908689;29;20118;-73
2021/06/26 05:31:08;;;;;;;10.05;6.35;;;;;;;19.37;85.85;101337.78;4908446;29;20117;-72
2021/06/26 05:33:34;;;;;;;7.32;5.78;;;;;;;19.66;84.04;101341.91;4908065;29;20028;-72
2021/06/26 05:35:59;;;;;;;7.63;5.45;;;;;;;19.96;81.88;101331.16;4891815;29;20654;-72
2021/06/26 05:38:25;;;;;;;13.50;5.88;;;;;;;20.72;78.00;101330.16;4905234;29;20055;-74
2021/06/26 05:40:50;;;;;;;6.72;5.28;;;;;;;21.51;72.67;101335.88;4927084;29;20700;-73
2021/06/26 05:43:16;;;;;;;5.47;4.90;;;;;;;21.66;71.23;101332.97;4885877;29;20123;-74
2021/06/26 05:45:42;;;;;;;6.18;4.43;;;;;;;21.63;71.71;101339.25;4905774;29;20024;-74
2021/06/26 05:48:08;;;;;;;5.35;4.85;;;;;;;21.27;73.23;101331.50;4907440;29;20494;-74
2021/06/26 05:50:34;;;;;;;5.20;4.68;;;;;;;21.09;74.25;101330.94;4905836;29;20035;-74
2021/06/26 05:52:59;;;;;;;6.50;4.88;;;;;;;20.82;74.64;101340.22;4904251;29;20040;-74
2021/06/26 05:55:26;;;;;;;8.13;5.00;;;;;;;20.69;76.26;101342.72;4906149;29;20074;-73
2021/06/26 05:57:52;;;;;;;6.63;4.68;;;;;;;20.56;77.09;101347.13;4905555;29;20040;-73
2021/06/26 06:00:20;;;;;;;6.97;4.68;;;;;;;20.38;78.56;101346.53;4889863;29;20427;-74
2021/06/26 06:02:46;;;;;;;5.75;4.95;;;;;;;20.31;79.81;101346.56;4910338;29;20439;-74
2021/06/26 06:05:13;;;;;;;8.45;5.40;;;;;;;20.21;81.13;101341.97;4907456;29;20074;-74
2021/06/26 06:07:40;;;;;;;7.65;4.78;;;;;;;20.20;81.63;101343.94;4903780;29;20198;-74
2021/06/26 06:10:08;;;;;;;5.05;4.50;;;;;;;20.28;81.35;101339.16;4909388;29;20040;-73
2021/06/26 06:12:35;;;;;;;4.70;4.30;;;;;;;20.30;81.44;101336.81;4907210;29;20032;-73
2021/06/26 06:15:05;;;;;;;5.03;4.53;;;;;;;20.30;80.90;101342.28;4908565;29;20403;-74
2021/06/26 06:17:31;;;;;;;5.40;4.50;;;;;;;20.32;80.60;101340.72;4906442;29;20055;-74
2021/06/26 06:19:56;;;;;;;4.78;3.95;;;;;;;20.31;81.25;101343.81;4909701;29;20036;-73
2021/06/26 06:22:23;;;;;;;5.53;4.30;;;;;;;20.29;81.94;101346.19;4904020;29;20123;-73
2021/06/26 06:24:49;;;;;;;4.63;4.20;;;;;;;20.44;78.39;101348.41;4905698;29;20601;-73
2021/06/26 06:27:14;;;;;;;5.43;4.18;;;;;;;20.68;77.08;101341.13;4910073;29;20044;-74
2021/06/26 06:29:40;;;;;;;4.88;3.88;;;;;;;21.13;72.56;101339.13;4909842;29;20040;-74
2021/06/26 06:32:06;;;;;;;9.10;4.35;;;;;;;21.76;67.71;101356.69;4907201;29;20039;-73
2021/06/26 06:34:31;;;;;;;4.95;3.75;;;;;;;22.34;62.80;101345.22;4923490;29;20036;-74
2021/06/26 06:36:57;;;;;;;6.78;3.50;;;;;;;22.83;63.13;101351.84;4909402;29;20103;-74
2021/06/26 06:39:24;;;;;;;3.50;3.20;;;;;;;23.29;60.88;101359.97;4906957;29;20036;-74
2021/06/26 06:41:49;;;;;;;3.35;2.63;;;;;;;23.70;60.62;101357.53;4928743;29;20584;-74
2021/06/26 06:44:15;;;;;;;3.95;2.92;;;;;;;24.10;57.82;101356.22;4902673;29;20066;-74
2021/06/26 06:46:40;;;;;;;3.85;2.88;;;;;;;24.29;54.97;101354.63;4898409;29;20032;-73
2021/06/26 06:49:06;;;;;;;5.50;3.03;;;;;;;24.50;52.92;101358.81;4909705;29;20032;-73
2021/06/26 06:51:31;;;;;;;3.13;2.78;;;;;;;24.48;54.86;101361.22;4908078;29;20040;-73
2021/06/26 06:53:58;;;;;;;6.85;2.90;;;;;;;24.44;54.90;101360.53;4905158;29;20039;-73
2021/06/26 06:56:23;;;;;;;5.57;2.95;;;;;;;24.24;54.85;101362.59;4909033;29;20043;-73
2021/06/26 06:58:49;;;;;;;5.55;2.85;;;;;;;23.98;54.81;101365.13;4909537;29;20044;-75
2021/06/26 07:01:15;;;;;;;6.85;3.50;;;;;;;23.76;57.34;101366.84;4908014;29;20028;-72
2021/06/26 07:03:41;;;;;;;4.10;3.08;;;;;;;23.79;56.48;101367.97;4907427;29;20050;-73
2021/06/26 07:06:06;;;;;;;6.38;3.05;;;;;;;23.59;58.25;101376.25;4931371;29;20028;-72
2021/06/26 07:08:31;;;;;;;3.20;2.80;;;;;;;23.55;56.42;101369.28;4909742;29;20107;-73
2021/06/26 07:10:57;;;;;;;4.53;3.28;;;;;;;23.72;56.72;101368.91;4909221;29;20192;-72
2021/06/26 07:13:22;;;;;;;4.30;3.40;;;;;;;23.90;55.43;101377.53;4908852;29;20043;-74
2021/06/26 07:15:48;;;;;;;12.00;5.68;;;;;;;24.00;55.21;101376.50;4911488;29;20035;-74
2021/06/26 07:18:13;;;;;;;9.75;4.68;;;;;;;24.14;56.25;101378.16;4923152;29;20423;-74
2021/06/26 07:20:40;;;;;;;7.10;4.88;;;;;;;24.14;58.71;101378.16;4909901;29;20060;-74
2021/06/26 07:23:06;;;;;;;6.22;5.63;;;;;;;24.18;53.77;101373.34;4901961;29;20056;-74
2021/06/26 07:25:31;;;;;;;9.10;5.43;;;;;;;24.21;56.43;101375.25;4905581;29;20040;-74
2021/06/26 07:27:57;;;;;;;9.07;5.03;;;;;;;24.33;57.39;101371.03;4909060;29;20032;-74
2021/06/26 07:30:22;;;;;;;9.40;5.03;;;;;;;24.40;56.53;101371.63;4901170;29;20050;-74
2021/06/26 07:32:48;;;;;;;9.00;5.63;;;;;;;24.42;57.72;101368.44;4906796;29;20119;-74
2021/06/26 07:35:14;;;;;;;7.90;5.53;;;;;;;24.27;56.08;101376.31;4906881;29;20495;-73
2021/06/26 07:37:41;;;;;;;10.02;6.10;;;;;;;24.27;57.31;101365.28;4906718;29;20032;-75
2021/06/26 07:40:28;;;;;;;8.07;5.20;;;;;;;24.22;58.96;101371.28;4908048;29;20032;-74
2021/06/26 07:42:54;;;;;;;7.70;5.47;;;;;;;24.62;59.10;101366.38;4847507;29;20061;-74
2021/06/26 07:45:19;;;;;;;12.25;5.55;;;;;;;24.82;59.91;101361.50;4852848;29;20045;-74
2021/06/26 07:47:45;;;;;;;12.90;7.43;;;;;;;24.91;59.79;101367.19;4848947;29;20055;-74
2021/06/26 07:50:11;;;;;;;18.55;10.43;;;;;;;24.85;57.87;101369.69;4844154;29;20077;-74
2021/06/26 07:52:37;;;;;;;11.98;8.10;;;;;;;24.74;60.57;101373.94;4861471;29;20210;-74
2021/06/26 07:55:04;;;;;;;12.48;8.10;;;;;;;24.75;60.38;101370.75;4847464;29;20082;-73
2021/06/26 07:57:30;;;;;;;19.23;9.18;;;;;;;24.80;61.38;101367.47;4848123;29;20441;-74
2021/06/26 07:59:55;;;;;;;12.73;7.45;;;;;;;24.95;59.72;101363.09;4849089;29;20041;-74
2021/06/26 08:02:21;;;;;;;12.00;7.38;;;;;;;24.84;60.05;101362.63;4846780;29;20100;-74
2021/06/26 08:04:47;;;;;;;12.57;6.40;;;;;;;25.14;60.73;101363.41;4846619;29;20040;-74
2021/06/26 08:07:12;;;;;;;14.30;8.90;;;;;;;25.23;59.95;101361.53;4833735;29;20088;-74
2021/06/26 08:09:38;;;;;;;16.63;9.07;;;;;;;25.40;58.74;101359.50;4840123;29;20049;-74
2021/06/26 08:12:04;;;;;;;13.07;9.02;;;;;;;25.31;58.19;101362.13;4847740;29;20037;-74
2021/06/26 08:14:29;;;;;;;14.55;8.82;;;;;;;25.41;58.63;101361.06;4848995;29;20045;-74
2021/06/26 08:16:55;;;;;;;15.00;9.50;;;;;;;25.09;59.52;101350.16;4848713;29;20912;-74
2021/06/26 08:19:20;;;;;;;11.85;8.05;;;;;;;25.05;60.44;101362.03;4862936;29;20946;-75
2021/06/26 08:21:46;;;;;;;17.60;8.60;;;;;;;25.00;59.17;101359.06;4906858;29;20091;-74
2021/06/26 08:24:13;;;;;;;14.02;9.40;;;;;;;25.22;58.34;101362.00;4915485;29;20151;-74
2021/06/26 08:26:39;;;;;;;12.55;9.13;;;;;;;25.17;58.71;101354.25;4909112;29;20071;-74
2021/06/26 08:29:04;;;;;;;13.43;8.48;;;;;;;25.21;59.77;101355.69;4904106;29;20102;-75
2021/06/26 08:31:30;;;;;;;13.73;9.35;;;;;;;25.26;58.18;101359.91;4907457;29;20031;-74
2021/06/26 08:33:55;;;;;;;13.23;8.25;;;;;;;25.52;57.42;101361.50;4904943;29;20114;-74
2021/06/26 08:36:21;;;;;;;16.58;8.82;;;;;;;25.70;57.07;101364.53;4906927;29;20048;-74
2021/06/26 08:38:46;;;;;;;13.15;8.30;;;;;;;25.86;56.75;101353.38;4906008;29;20159;-74
2021/06/26 08:41:12;;;;;;;15.82;9.15;;;;;;;26.08;56.78;101354.25;4907953;29;20032;-74
2021/06/26 08:43:40;;;;;;;15.77;10.40;;;;;;;26.17;55.64;101350.84;4901533;29;20036;-74
2021/06/26 08:46:06;;;;;;;12.93;8.82;;;;;;;26.08;55.92;101353.47;4908883;29;20834;-74
2021/06/26 08:48:33;;;;;;;15.70;9.15;;;;;;;26.12;55.23;101345.84;4901875;29;20051;-74
2021/06/26 08:50:59;;;;;;;15.75;8.98;;;;;;;26.39;56.45;101357.97;4908685;29;20111;-74
2021/06/26 08:53:24;;;;;;;15.15;9.90;;;;;;;26.50;56.29;101352.84;4907832;29;20020;-74
2021/06/26 08:55:53;;;;;;;15.65;9.80;;;;;;;26.42;55.72;101348.78;4907446;29;20048;-74
2021/06/26 08:58:20;;;;;;;15.88;10.57;;;;;;;26.22;54.65;101353.81;4904406;29;20067;-74
2021/06/26 09:00:46;;;;;;;15.80;9.75;;;;;;;26.24;54.64;101351.38;4914982;29;20084;-74
2021/06/26 09:03:15;;;;;;;15.73;10.68;;;;;;;26.16;54.55;101349.28;4906732;29;20044;-73
2021/06/26 09:05:44;;;;;;;17.92;11.13;;;;;;;26.00;55.32;101350.16;4901563;29;20032;-74
2021/06/26 09:08:18;;;;;;;15.68;10.35;;;;;;;26.00;54.63;101358.44;4902240;29;20032;-74
2021/06/26 09:10:48;;;;;;;14.80;9.45;;;;;;;26.01;55.66;101360.00;4904112;29;20546;-73
2021/06/26 09:13:24;;;;;;;14.30;9.40;;;;;;;25.97;54.56;101362.09;4906904;29;20036;-73
2021/06/26 09:16:02;;;;;;;16.33;9.50;;;;;;;25.81;57.76;101362.97;4900310;29;20079;-74
2021/06/26 09:18:28;;;;;;;21.45;10.63;;;;;;;25.68;56.14;101359.44;4900860;29;20130;-75
2021/06/26 09:20:55;;;;;;;13.68;9.88;;;;;;;25.68;55.94;101350.41;4905576;29;20115;-74
2021/06/26 09:23:33;;;;;;;19.63;11.50;;;;;;;25.68;55.30;101344.88;4904753;29;20419;-74
2021/06/26 09:26:07;;;;;;;13.07;9.40;;;;;;;25.68;58.39;101359.44;4904115;29;20119;-74
2021/06/26 09:28:33;;;;;;;14.93;10.32;;;;;;;25.87;57.67;101346.63;4922677;29;20035;-74
2021/06/26 09:30:59;;;;;;;16.33;10.90;;;;;;;25.82;58.78;101352.72;4907984;29;20047;-74
2021/06/26 09:33:26;;;;;;;13.02;9.63;;;;;;;25.99;57.96;101353.38;4905838;29;20115;-74
2021/06/26 09:36:04;;;;;;;13.25;9.40;;;;;;;25.99;57.10;101356.91;4908070;29;20852;-73
2021/06/26 09:38:32;;;;;;;14.15;10.45;;;;;;;25.91;56.20;101350.84;4902359;29;20051;-74
2021/06/26 09:40:58;;;;;;;18.02;11.90;;;;;;;25.90;56.61;101349.28;4900553;29;20035;-74
2021/06/26 09:43:29;;;;;;;18.33;10.73;;;;;;;25.94;55.47;101354.69;4923070;29;20048;-73
2021/06/26 09:46:11;;;;;;;15.15;10.60;;;;;;;25.71;57.73;101352.25;4894274;29;20032;-74
2021/06/26 09:49:06;;;;;;;15.02;10.30;;;;;;;25.71;57.98;101361.31;4905136;29;20025;-74
2021/06/26 09:51:33;;;;;;;17.17;12.43;;;;;;;25.92;55.38;101363.41;4878211;29;20080;-73
2021/06/26 09:54:06;;;;;;;15.77;11.65;;;;;;;25.70;55.10;101362.53;4904672;29;20127;-74
2021/06/26 09:56:41;;;;;;;14.73;11.20;;;;;;;25.65;56.17;101360.31;4898339;29;20403;-74
2021/06/26 09:59:07;;;;;;;13.90;9.52;;;;;;;25.61;57.64;101359.66;4907676;29;20722;-74
2021/06/26 10:01:35;;;;;;;14.20;10.23;;;;;;;25.72;59.81;101357.34;4907572;29;20038;-74
2021/06/26 10:04:05;;;;;;;18.10;10.60;;;;;;;25.83;60.48;101355.03;4909566;29;20128;-74
2021/06/26 10:06:32;;;;;;;16.45;11.55;;;;;;;26.02;56.34;101358.00;4909832;29;20027;-74
2021/06/26 10:08:59;;;;;;;19.85;12.23;;;;;;;25.89;55.55;101358.00;4922605;29;20042;-74
2021/06/26 10:11:25;;;;;;;18.33;10.88;;;;;;;25.72;58.04;101359.34;4923023;29;20088;-74
2021/06/26 10:13:51;;;;;;;20.13;12.73;;;;;;;25.83;55.95;101355.03;4907816;29;20044;-74
2021/06/26 10:16:17;;;;;;;18.95;11.85;;;;;;;25.76;57.36;101349.72;4907821;29;20040;-74
2021/06/26 10:18:43;;;;;;;19.67;11.18;;;;;;;26.00;57.07;101344.63;4907411;29;20091;-74
2021/06/26 10:21:08;;;;;;;17.45;10.90;;;;;;;26.02;58.04;101349.69;4906689;29;20035;-73
2021/06/26 10:23:35;;;;;;;17.15;11.05;;;;;;;26.18;57.83;101352.38;4909236;29;20036;-75
2021/06/26 10:26:02;;;;;;;13.93;10.27;;;;;;;26.05;59.21;101348.84;4904965;29;20463;-74
2021/06/26 10:28:27;;;;;;;16.73;11.20;;;;;;;26.08;58.36;101343.22;4894246;29;20047;-74
2021/06/26 10:31:02;;;;;;;18.73;10.88;;;;;;;26.01;60.43;101342.66;4904178;29;20111;-75
2021/06/26 10:33:30;;;;;;;16.00;11.18;;;;;;;26.04;58.48;101348.06;4902213;29;20582;-74
2021/06/26 10:35:58;;;;;;;17.45;11.10;;;;;;;26.21;59.54;101346.72;4919311;29;20028;-74
2021/06/26 10:38:24;;;;;;;15.27;10.52;;;;;;;26.61;58.73;101347.75;4912711;29;20108;-74
2021/06/26 10:40:53;;;;;;;22.63;12.48;;;;;;;26.46;55.24;101337.63;4902367;29;20040;-74
2021/06/26 10:43:30;;;;;;;17.73;11.65;;;;;;;26.57;55.91;101340.78;4907301;29;20090;-75
2021/06/26 10:46:13;;;;;;;14.35;10.45;;;;;;;26.56;56.57;101334.47;4909185;29;20654;-74
2021/06/26 10:48:41;;;;;;;21.40;11.85;;;;;;;26.58;53.54;101334.81;4903653;29;20036;-74
2021/06/26 10:51:08;;;;;;;15.88;11.18;;;;;;;26.39;57.23;101340.59;4908099;29;20036;-75
2021/06/26 10:53:39;;;;;;;15.70;11.43;;;;;;;26.30;58.30;101333.03;4907907;29;20036;-74
2021/06/26 10:56:09;;;;;;;18.17;11.65;;;;;;;26.30;58.71;101338.53;4893309;29;20444;-74
2021/06/26 10:58:45;;;;;;;14.80;10.55;;;;;;;26.14;57.80;101333.16;4922035;29;20733;-74
2021/06/26 11:01:22;;;;;;;16.38;11.38;;;;;;;26.08;59.23;101342.44;4890685;29;20044;-74
2021/06/26 11:04:09;;;;;;;18.77;11.77;;;;;;;25.77;58.58;101337.47;4923915;29;20113;-74
2021/06/26 11:06:36;;;;;;;17.58;10.70;;;;;;;25.75;56.75;101341.88;4909040;29;20040;-74
2021/06/26 11:09:06;;;;;;;16.95;11.52;;;;;;;25.73;59.93;101336.81;4917221;29;20138;-74
2021/06/26 11:11:40;;;;;;;14.97;10.60;;;;;;;25.58;62.00;101348.72;4911255;29;20498;-73
2021/06/26 11:14:19;;;;;;;15.65;10.50;;;;;;;25.63;60.95;101340.66;4885441;29;20127;-75
2021/06/26 11:16:50;;;;;;;13.07;10.45;;;;;;;25.69;61.28;101343.66;4900998;29;20064;-75